sensor_id;sensor_type;location;lat;lon;timestamp;P1;durP1;ratioP1;P2;durP2;ratioP2
8353;SDS011;4656;48.090;11.498;2023-03-21T00:00:44;4.38;;;2.40;;
8353;SDS011;4656;48.090;11.498;2023-03-21T00:02:47;2.83;;;2.13;;
8353;SDS011;4656;48.090;11.498;2023-03-21T00:04:49;2.20;;;2.00;;
8353;SDS011;4656;48.090;11.498;2023-03-21T00:06:51;2.50;;;2.30;;
8353;SDS011;4656;48.090;11.498;2023-03-21T00:08:53;2.22;;;2.03;;
8353;SDS011;4656;48.090;11.498;2023-03-21T00:10:56;2.65;;;2.08;;
8353;SDS011;4656;48.090;11.498;2023-03-21T00:12:58;2.35;;;2.15;;
8353;SDS011;4656;48.090;11.498;2023-03-21T00:15:00;3.22;;;2.10;;
8353;SDS011;4656;48.090;11.498;2023-03-21T00:17:06;3.53;;;2.40;;
8353;SDS011;4656;48.090;11.498;2023-03-21T00:19:09;2.85;;;2.55;;
8353;SDS011;4656;48.090;11.498;2023-03-21T00:21:14;2.95;;;2.40;;
8353;SDS011;4656;48.090;11.498;2023-03-21T00:23:17;2.75;;;2.17;;
8353;SDS011;4656;48.090;11.498;2023-03-21T00:25:19;2.63;;;2.30;;
8353;SDS011;4656;48.090;11.498;2023-03-21T00:27:21;3.83;;;2.60;;
8353;SDS011;4656;48.090;11.498;2023-03-21T00:29:23;2.72;;;2.40;;
8353;SDS011;4656;48.090;11.498;2023-03-21T00:31:26;3.00;;;2.67;;
8353;SDS011;4656;48.090;11.498;2023-03-21T00:33:29;3.15;;;2.85;;
8353;SDS011;4656;48.090;11.498;2023-03-21T00:35:31;2.85;;;2.50;;
8353;SDS011;4656;48.090;11.498;2023-03-21T00:37:33;2.95;;;2.67;;
8353;SDS011;4656;48.090;11.498;2023-03-21T00:39:36;4.20;;;2.95;;
8353;SDS011;4656;48.090;11.498;2023-03-21T00:41:38;4.55;;;2.70;;
8353;SDS011;4656;48.090;11.498;2023-03-21T00:43:40;4.57;;;2.85;;
8353;SDS011;4656;48.090;11.498;2023-03-21T00:45:42;3.58;;;2.80;;
8353;SDS011;4656;48.090;11.498;2023-03-21T00:47:44;3.67;;;2.70;;
8353;SDS011;4656;48.090;11.498;2023-03-21T00:49:48;3.77;;;3.13;;
8353;SDS011;4656;48.090;11.498;2023-03-21T00:51:50;3.35;;;2.95;;
8353;SDS011;4656;48.090;11.498;2023-03-21T00:53:53;4.22;;;3.10;;
8353;SDS011;4656;48.090;11.498;2023-03-21T00:55:55;3.20;;;2.90;;
8353;SDS011;4656;48.090;11.498;2023-03-21T00:57:57;3.20;;;2.90;;
8353;SDS011;4656;48.090;11.498;2023-03-21T01:00:00;3.07;;;2.70;;
8353;SDS011;4656;48.090;11.498;2023-03-21T01:02:03;3.63;;;2.75;;
8353;SDS011;4656;48.090;11.498;2023-03-21T01:04:06;4.07;;;2.90;;
8353;SDS011;4656;48.090;11.498;2023-03-21T01:06:13;3.28;;;2.90;;
8353;SDS011;4656;48.090;11.498;2023-03-21T01:08:18;3.50;;;3.05;;
8353;SDS011;4656;48.090;11.498;2023-03-21T01:10:20;3.20;;;2.90;;
8353;SDS011;4656;48.090;11.498;2023-03-21T01:12:23;4.85;;;3.10;;
8353;SDS011;4656;48.090;11.498;2023-03-21T01:14:25;3.47;;;2.80;;
8353;SDS011;4656;48.090;11.498;2023-03-21T01:16:27;3.10;;;2.70;;
8353;SDS011;4656;48.090;11.498;2023-03-21T01:18:29;3.03;;;2.80;;
8353;SDS011;4656;48.090;11.498;2023-03-21T01:20:32;3.13;;;2.83;;
8353;SDS011;4656;48.090;11.498;2023-03-21T01:22:35;3.75;;;2.60;;
8353;SDS011;4656;48.090;11.498;2023-03-21T01:24:37;3.90;;;2.75;;
8353;SDS011;4656;48.090;11.498;2023-03-21T01:26:40;3.47;;;2.70;;
8353;SDS011;4656;48.090;11.498;2023-03-21T01:28:42;2.95;;;2.50;;
8353;SDS011;4656;48.090;11.498;2023-03-21T01:30:45;3.60;;;2.70;;
8353;SDS011;4656;48.090;11.498;2023-03-21T01:32:47;3.20;;;2.90;;
8353;SDS011;4656;48.090;11.498;2023-03-21T01:34:50;2.90;;;2.60;;
8353;SDS011;4656;48.090;11.498;2023-03-21T01:36:52;3.60;;;3.00;;
8353;SDS011;4656;48.090;11.498;2023-03-21T01:38:56;3.65;;;3.00;;
8353;SDS011;4656;48.090;11.498;2023-03-21T01:40:58;3.60;;;2.78;;
8353;SDS011;4656;48.090;11.498;2023-03-21T01:43:01;4.07;;;2.90;;
8353;SDS011;4656;48.090;11.498;2023-03-21T01:45:04;4.90;;;2.70;;
8353;SDS011;4656;48.090;11.498;2023-03-21T01:47:07;4.80;;;3.05;;
8353;SDS011;4656;48.090;11.498;2023-03-21T01:49:11;3.88;;;3.10;;
8353;SDS011;4656;48.090;11.498;2023-03-21T01:51:15;4.57;;;2.90;;
8353;SDS011;4656;48.090;11.498;2023-03-21T01:53:18;3.10;;;2.80;;
8353;SDS011;4656;48.090;11.498;2023-03-21T01:55:22;4.53;;;3.10;;
8353;SDS011;4656;48.090;11.498;2023-03-21T01:57:26;8.63;;;2.90;;
8353;SDS011;4656;48.090;11.498;2023-03-21T01:59:32;3.10;;;2.80;;
8353;SDS011;4656;48.090;11.498;2023-03-21T02:01:37;3.40;;;2.83;;
8353;SDS011;4656;48.090;11.498;2023-03-21T02:03:41;5.72;;;3.05;;
8353;SDS011;4656;48.090;11.498;2023-03-21T02:05:51;3.33;;;2.85;;
8353;SDS011;4656;48.090;11.498;2023-03-21T02:07:54;3.22;;;2.92;;
8353;SDS011;4656;48.090;11.498;2023-03-21T02:09:57;4.05;;;3.40;;
8353;SDS011;4656;48.090;11.498;2023-03-21T02:12:00;4.20;;;3.28;;
8353;SDS011;4656;48.090;11.498;2023-03-21T02:14:03;4.13;;;3.10;;
8353;SDS011;4656;48.090;11.498;2023-03-21T02:16:07;4.23;;;3.13;;
8353;SDS011;4656;48.090;11.498;2023-03-21T02:18:13;4.88;;;3.15;;
8353;SDS011;4656;48.090;11.498;2023-03-21T02:22:51;3.97;;;2.90;;
8353;SDS011;4656;48.090;11.498;2023-03-21T02:27:18;3.42;;;2.88;;
8353;SDS011;4656;48.090;11.498;2023-03-21T02:31:45;3.00;;;2.80;;
8353;SDS011;4656;48.090;11.498;2023-03-21T02:34:03;4.72;;;2.83;;
8353;SDS011;4656;48.090;11.498;2023-03-21T02:36:16;5.15;;;3.25;;
8353;SDS011;4656;48.090;11.498;2023-03-21T02:38:21;4.93;;;2.80;;
8353;SDS011;4656;48.090;11.498;2023-03-21T02:40:26;3.65;;;2.75;;
8353;SDS011;4656;48.090;11.498;2023-03-21T02:42:32;5.03;;;2.88;;
8353;SDS011;4656;48.090;11.498;2023-03-21T02:44:38;3.95;;;2.72;;
8353;SDS011;4656;48.090;11.498;2023-03-21T02:46:42;5.07;;;3.10;;
8353;SDS011;4656;48.090;11.498;2023-03-21T02:48:49;3.92;;;3.10;;
8353;SDS011;4656;48.090;11.498;2023-03-21T02:50:53;4.50;;;3.10;;
8353;SDS011;4656;48.090;11.498;2023-03-21T02:52:56;3.58;;;2.97;;
8353;SDS011;4656;48.090;11.498;2023-03-21T02:55:00;4.80;;;3.00;;
8353;SDS011;4656;48.090;11.498;2023-03-21T02:57:03;3.47;;;2.83;;
8353;SDS011;4656;48.090;11.498;2023-03-21T02:59:06;5.55;;;3.25;;
8353;SDS011;4656;48.090;11.498;2023-03-21T03:01:09;5.30;;;3.40;;
8353;SDS011;4656;48.090;11.498;2023-03-21T03:03:11;5.50;;;3.45;;
8353;SDS011;4656;48.090;11.498;2023-03-21T03:05:14;4.07;;;3.42;;
8353;SDS011;4656;48.090;11.498;2023-03-21T03:07:20;6.10;;;3.50;;
8353;SDS011;4656;48.090;11.498;2023-03-21T03:09:28;5.38;;;3.00;;
8353;SDS011;4656;48.090;11.498;2023-03-21T03:11:35;5.95;;;3.13;;
8353;SDS011;4656;48.090;11.498;2023-03-21T03:13:43;4.68;;;3.38;;
8353;SDS011;4656;48.090;11.498;2023-03-21T03:15:52;4.60;;;3.38;;
8353;SDS011;4656;48.090;11.498;2023-03-21T03:18:02;5.03;;;3.53;;
8353;SDS011;4656;48.090;11.498;2023-03-21T03:20:13;3.97;;;3.50;;
8353;SDS011;4656;48.090;11.498;2023-03-21T03:22:20;3.70;;;3.10;;
8353;SDS011;4656;48.090;11.498;2023-03-21T03:24:25;4.07;;;3.28;;
8353;SDS011;4656;48.090;11.498;2023-03-21T03:26:29;4.18;;;3.17;;
8353;SDS011;4656;48.090;11.498;2023-03-21T03:28:36;5.22;;;3.30;;
8353;SDS011;4656;48.090;11.498;2023-03-21T03:30:39;7.15;;;3.28;;
8353;SDS011;4656;48.090;11.498;2023-03-21T03:32:44;5.90;;;3.40;;
8353;SDS011;4656;48.090;11.498;2023-03-21T03:34:48;3.63;;;3.28;;
8353;SDS011;4656;48.090;11.498;2023-03-21T03:36:55;4.00;;;3.42;;
8353;SDS011;4656;48.090;11.498;2023-03-21T03:38:58;3.22;;;2.92;;
8353;SDS011;4656;48.090;11.498;2023-03-21T03:41:04;5.10;;;3.30;;
8353;SDS011;4656;48.090;11.498;2023-03-21T03:43:09;4.75;;;3.03;;
8353;SDS011;4656;48.090;11.498;2023-03-21T03:45:14;4.55;;;3.50;;
8353;SDS011;4656;48.090;11.498;2023-03-21T03:47:17;5.78;;;3.13;;
8353;SDS011;4656;48.090;11.498;2023-03-21T03:49:21;3.38;;;3.08;;
8353;SDS011;4656;48.090;11.498;2023-03-21T03:51:25;4.43;;;3.10;;
8353;SDS011;4656;48.090;11.498;2023-03-21T03:53:29;6.68;;;3.00;;
8353;SDS011;4656;48.090;11.498;2023-03-21T03:55:36;3.90;;;3.20;;
8353;SDS011;4656;48.090;11.498;2023-03-21T03:57:38;4.45;;;3.35;;
8353;SDS011;4656;48.090;11.498;2023-03-21T03:59:41;4.78;;;3.65;;
8353;SDS011;4656;48.090;11.498;2023-03-21T04:01:46;3.83;;;3.42;;
8353;SDS011;4656;48.090;11.498;2023-03-21T04:03:48;5.32;;;3.47;;
8353;SDS011;4656;48.090;11.498;2023-03-21T04:05:50;5.60;;;3.95;;
8353;SDS011;4656;48.090;11.498;2023-03-21T04:07:53;4.32;;;3.90;;
8353;SDS011;4656;48.090;11.498;2023-03-21T04:09:56;4.20;;;3.60;;
8353;SDS011;4656;48.090;11.498;2023-03-21T04:11:58;4.43;;;3.73;;
8353;SDS011;4656;48.090;11.498;2023-03-21T04:14:00;4.95;;;3.47;;
8353;SDS011;4656;48.090;11.498;2023-03-21T04:16:02;5.07;;;3.55;;
8353;SDS011;4656;48.090;11.498;2023-03-21T04:18:06;4.68;;;3.60;;
8353;SDS011;4656;48.090;11.498;2023-03-21T04:20:08;3.95;;;3.40;;
8353;SDS011;4656;48.090;11.498;2023-03-21T04:22:11;5.30;;;3.17;;
8353;SDS011;4656;48.090;11.498;2023-03-21T04:24:13;3.85;;;3.40;;
8353;SDS011;4656;48.090;11.498;2023-03-21T04:26:16;3.78;;;3.17;;
8353;SDS011;4656;48.090;11.498;2023-03-21T04:28:20;3.73;;;3.07;;
8353;SDS011;4656;48.090;11.498;2023-03-21T04:30:22;4.45;;;3.10;;
8353;SDS011;4656;48.090;11.498;2023-03-21T04:32:24;5.78;;;3.15;;
8353;SDS011;4656;48.090;11.498;2023-03-21T04:34:28;3.83;;;3.10;;
8353;SDS011;4656;48.090;11.498;2023-03-21T04:36:30;5.18;;;2.90;;
8353;SDS011;4656;48.090;11.498;2023-03-21T04:38:37;5.25;;;3.08;;
8353;SDS011;4656;48.090;11.498;2023-03-21T04:40:39;3.38;;;2.80;;
8353;SDS011;4656;48.090;11.498;2023-03-21T04:42:42;4.53;;;2.95;;
8353;SDS011;4656;48.090;11.498;2023-03-21T04:44:44;5.40;;;2.92;;
8353;SDS011;4656;48.090;11.498;2023-03-21T04:46:47;6.20;;;3.10;;
8353;SDS011;4656;48.090;11.498;2023-03-21T04:48:49;6.07;;;3.33;;
8353;SDS011;4656;48.090;11.498;2023-03-21T04:50:52;3.92;;;3.20;;
8353;SDS011;4656;48.090;11.498;2023-03-21T04:52:54;3.75;;;3.17;;
8353;SDS011;4656;48.090;11.498;2023-03-21T04:54:57;3.58;;;3.03;;
8353;SDS011;4656;48.090;11.498;2023-03-21T04:57:00;4.35;;;3.20;;
8353;SDS011;4656;48.090;11.498;2023-03-21T04:59:05;3.88;;;3.25;;
8353;SDS011;4656;48.090;11.498;2023-03-21T05:01:07;3.65;;;2.95;;
8353;SDS011;4656;48.090;11.498;2023-03-21T05:03:13;4.72;;;3.30;;
8353;SDS011;4656;48.090;11.498;2023-03-21T05:05:18;4.70;;;3.35;;
8353;SDS011;4656;48.090;11.498;2023-03-21T05:07:22;3.88;;;3.42;;
8353;SDS011;4656;48.090;11.498;2023-03-21T05:09:25;3.85;;;3.00;;
8353;SDS011;4656;48.090;11.498;2023-03-21T05:11:27;4.55;;;3.60;;
8353;SDS011;4656;48.090;11.498;2023-03-21T05:13:30;6.47;;;3.50;;
8353;SDS011;4656;48.090;11.498;2023-03-21T05:15:32;6.60;;;3.10;;
8353;SDS011;4656;48.090;11.498;2023-03-21T05:17:34;5.55;;;3.25;;
8353;SDS011;4656;48.090;11.498;2023-03-21T05:19:37;4.38;;;3.28;;
8353;SDS011;4656;48.090;11.498;2023-03-21T05:21:39;3.45;;;2.97;;
8353;SDS011;4656;48.090;11.498;2023-03-21T05:23:43;5.10;;;3.03;;
8353;SDS011;4656;48.090;11.498;2023-03-21T05:25:53;4.38;;;3.20;;
8353;SDS011;4656;48.090;11.498;2023-03-21T05:27:55;5.30;;;3.40;;
8353;SDS011;4656;48.090;11.498;2023-03-21T05:30:03;3.95;;;3.22;;
8353;SDS011;4656;48.090;11.498;2023-03-21T05:32:06;4.57;;;3.33;;
8353;SDS011;4656;48.090;11.498;2023-03-21T05:34:08;4.10;;;3.10;;
8353;SDS011;4656;48.090;11.498;2023-03-21T05:36:10;4.60;;;3.13;;
8353;SDS011;4656;48.090;11.498;2023-03-21T05:38:12;3.97;;;2.80;;
8353;SDS011;4656;48.090;11.498;2023-03-21T05:40:16;8.35;;;2.90;;
8353;SDS011;4656;48.090;11.498;2023-03-21T05:42:18;5.75;;;2.80;;
8353;SDS011;4656;48.090;11.498;2023-03-21T05:44:20;5.40;;;2.83;;
8353;SDS011;4656;48.090;11.498;2023-03-21T05:46:22;3.38;;;2.70;;
8353;SDS011;4656;48.090;11.498;2023-03-21T05:48:25;3.58;;;2.80;;
8353;SDS011;4656;48.090;11.498;2023-03-21T05:50:27;4.07;;;2.90;;
8353;SDS011;4656;48.090;11.498;2023-03-21T05:52:29;3.97;;;2.72;;
8353;SDS011;4656;48.090;11.498;2023-03-21T05:54:31;3.30;;;2.67;;
8353;SDS011;4656;48.090;11.498;2023-03-21T05:56:35;4.25;;;3.00;;
8353;SDS011;4656;48.090;11.498;2023-03-21T05:58:39;2.78;;;2.58;;
8353;SDS011;4656;48.090;11.498;2023-03-21T06:00:41;4.05;;;2.70;;
8353;SDS011;4656;48.090;11.498;2023-03-21T06:02:43;3.30;;;2.80;;
8353;SDS011;4656;48.090;11.498;2023-03-21T06:04:46;4.28;;;2.60;;
8353;SDS011;4656;48.090;11.498;2023-03-21T06:06:48;3.25;;;2.65;;
8353;SDS011;4656;48.090;11.498;2023-03-21T06:08:51;3.23;;;2.83;;
8353;SDS011;4656;48.090;11.498;2023-03-21T06:10:53;4.20;;;2.75;;
8353;SDS011;4656;48.090;11.498;2023-03-21T06:12:56;4.93;;;2.75;;
8353;SDS011;4656;48.090;11.498;2023-03-21T06:14:59;4.78;;;2.88;;
8353;SDS011;4656;48.090;11.498;2023-03-21T06:17:01;3.15;;;2.75;;
8353;SDS011;4656;48.090;11.498;2023-03-21T06:19:03;3.58;;;2.85;;
8353;SDS011;4656;48.090;11.498;2023-03-21T06:21:05;3.03;;;2.70;;
8353;SDS011;4656;48.090;11.498;2023-03-21T06:23:07;5.05;;;2.92;;
8353;SDS011;4656;48.090;11.498;2023-03-21T06:25:09;4.35;;;2.83;;
8353;SDS011;4656;48.090;11.498;2023-03-21T06:27:12;3.00;;;2.80;;
8353;SDS011;4656;48.090;11.498;2023-03-21T06:29:16;4.47;;;3.20;;
8353;SDS011;4656;48.090;11.498;2023-03-21T06:31:18;4.38;;;2.90;;
8353;SDS011;4656;48.090;11.498;2023-03-21T06:33:21;3.97;;;2.65;;
8353;SDS011;4656;48.090;11.498;2023-03-21T06:35:23;5.07;;;3.00;;
8353;SDS011;4656;48.090;11.498;2023-03-21T06:37:25;5.53;;;2.92;;
8353;SDS011;4656;48.090;11.498;2023-03-21T06:39:27;4.65;;;2.80;;
8353;SDS011;4656;48.090;11.498;2023-03-21T06:41:30;3.20;;;2.90;;
8353;SDS011;4656;48.090;11.498;2023-03-21T06:43:32;3.73;;;3.00;;
8353;SDS011;4656;48.090;11.498;2023-03-21T06:45:35;3.92;;;2.70;;
8353;SDS011;4656;48.090;11.498;2023-03-21T06:47:38;6.18;;;3.20;;
8353;SDS011;4656;48.090;11.498;2023-03-21T06:49:40;5.68;;;3.13;;
8353;SDS011;4656;48.090;11.498;2023-03-21T06:51:42;4.40;;;2.97;;
8353;SDS011;4656;48.090;11.498;2023-03-21T06:53:44;3.97;;;3.03;;
8353;SDS011;4656;48.090;11.498;2023-03-21T06:55:47;4.68;;;3.08;;
8353;SDS011;4656;48.090;11.498;2023-03-21T06:57:50;3.85;;;3.30;;
8353;SDS011;4656;48.090;11.498;2023-03-21T06:59:52;5.80;;;3.20;;
8353;SDS011;4656;48.090;11.498;2023-03-21T07:01:55;4.00;;;3.10;;
8353;SDS011;4656;48.090;11.498;2023-03-21T07:03:57;3.50;;;3.00;;
8353;SDS011;4656;48.090;11.498;2023-03-21T07:06:02;3.55;;;3.25;;
8353;SDS011;4656;48.090;11.498;2023-03-21T07:08:06;4.97;;;3.03;;
8353;SDS011;4656;48.090;11.498;2023-03-21T07:10:10;6.10;;;3.10;;
8353;SDS011;4656;48.090;11.498;2023-03-21T07:12:12;5.25;;;3.10;;
8353;SDS011;4656;48.090;11.498;2023-03-21T07:14:14;4.87;;;2.90;;
8353;SDS011;4656;48.090;11.498;2023-03-21T07:16:17;3.90;;;2.90;;
8353;SDS011;4656;48.090;11.498;2023-03-21T07:18:21;3.83;;;3.00;;
8353;SDS011;4656;48.090;11.498;2023-03-21T07:20:24;6.95;;;3.28;;
8353;SDS011;4656;48.090;11.498;2023-03-21T07:22:26;4.63;;;3.20;;
8353;SDS011;4656;48.090;11.498;2023-03-21T07:24:28;3.97;;;2.90;;
8353;SDS011;4656;48.090;11.498;2023-03-21T07:26:30;4.93;;;3.00;;
8353;SDS011;4656;48.090;11.498;2023-03-21T07:28:32;4.50;;;3.13;;
8353;SDS011;4656;48.090;11.498;2023-03-21T07:30:35;5.47;;;3.13;;
8353;SDS011;4656;48.090;11.498;2023-03-21T07:32:37;4.50;;;3.70;;
8353;SDS011;4656;48.090;11.498;2023-03-21T07:34:41;5.27;;;3.30;;
8353;SDS011;4656;48.090;11.498;2023-03-21T07:36:43;3.55;;;3.20;;
8353;SDS011;4656;48.090;11.498;2023-03-21T07:38:45;4.75;;;3.10;;
8353;SDS011;4656;48.090;11.498;2023-03-21T07:40:47;7.80;;;3.13;;
8353;SDS011;4656;48.090;11.498;2023-03-21T07:42:49;4.25;;;3.30;;
8353;SDS011;4656;48.090;11.498;2023-03-21T07:44:52;3.55;;;3.20;;
8353;SDS011;4656;48.090;11.498;2023-03-21T07:46:54;3.33;;;3.00;;
8353;SDS011;4656;48.090;11.498;2023-03-21T07:48:56;5.43;;;3.08;;
8353;SDS011;4656;48.090;11.498;2023-03-21T07:50:59;3.35;;;3.00;;
8353;SDS011;4656;48.090;11.498;2023-03-21T07:53:02;5.60;;;3.17;;
8353;SDS011;4656;48.090;11.498;2023-03-21T07:55:04;5.57;;;3.30;;
8353;SDS011;4656;48.090;11.498;2023-03-21T07:57:06;5.25;;;3.25;;
8353;SDS011;4656;48.090;11.498;2023-03-21T07:59:09;3.65;;;3.22;;
8353;SDS011;4656;48.090;11.498;2023-03-21T08:01:11;3.38;;;2.97;;
8353;SDS011;4656;48.090;11.498;2023-03-21T08:03:13;3.40;;;3.10;;
8353;SDS011;4656;48.090;11.498;2023-03-21T08:05:15;4.72;;;3.22;;
8353;SDS011;4656;48.090;11.498;2023-03-21T08:07:19;4.22;;;3.25;;
8353;SDS011;4656;48.090;11.498;2023-03-21T08:09:21;4.78;;;3.50;;
8353;SDS011;4656;48.090;11.498;2023-03-21T08:11:24;4.40;;;3.08;;
8353;SDS011;4656;48.090;11.498;2023-03-21T08:13:26;6.07;;;3.35;;
8353;SDS011;4656;48.090;11.498;2023-03-21T08:15:28;4.40;;;3.20;;
8353;SDS011;4656;48.090;11.498;2023-03-21T08:17:31;3.63;;;3.13;;
8353;SDS011;4656;48.090;11.498;2023-03-21T08:19:35;4.00;;;3.03;;
8353;SDS011;4656;48.090;11.498;2023-03-21T08:21:37;3.45;;;3.15;;
8353;SDS011;4656;48.090;11.498;2023-03-21T08:23:41;5.30;;;3.33;;
8353;SDS011;4656;48.090;11.498;2023-03-21T08:25:43;4.57;;;3.35;;
8353;SDS011;4656;48.090;11.498;2023-03-21T08:27:46;4.35;;;3.35;;
8353;SDS011;4656;48.090;11.498;2023-03-21T08:29:48;4.05;;;2.88;;
8353;SDS011;4656;48.090;11.498;2023-03-21T08:31:50;4.40;;;3.30;;
8353;SDS011;4656;48.090;11.498;2023-03-21T08:33:52;3.75;;;2.95;;
8353;SDS011;4656;48.090;11.498;2023-03-21T08:35:57;4.63;;;3.30;;
8353;SDS011;4656;48.090;11.498;2023-03-21T08:38:00;5.68;;;3.83;;
8353;SDS011;4656;48.090;11.498;2023-03-21T08:40:04;5.65;;;3.47;;
8353;SDS011;4656;48.090;11.498;2023-03-21T08:42:10;4.97;;;3.50;;
8353;SDS011;4656;48.090;11.498;2023-03-21T08:44:12;5.35;;;3.55;;
8353;SDS011;4656;48.090;11.498;2023-03-21T08:46:15;4.93;;;3.90;;
8353;SDS011;4656;48.090;11.498;2023-03-21T08:48:18;4.93;;;3.50;;
8353;SDS011;4656;48.090;11.498;2023-03-21T08:50:20;10.25;;;4.70;;
8353;SDS011;4656;48.090;11.498;2023-03-21T08:52:23;5.50;;;3.60;;
8353;SDS011;4656;48.090;11.498;2023-03-21T08:54:39;5.30;;;3.67;;
8353;SDS011;4656;48.090;11.498;2023-03-21T08:56:45;4.63;;;3.70;;
8353;SDS011;4656;48.090;11.498;2023-03-21T08:58:47;12.50;;;8.07;;
8353;SDS011;4656;48.090;11.498;2023-03-21T09:00:49;8.40;;;5.13;;
8353;SDS011;4656;48.090;11.498;2023-03-21T09:02:52;5.00;;;3.70;;
8353;SDS011;4656;48.090;11.498;2023-03-21T09:04:55;5.03;;;3.50;;
8353;SDS011;4656;48.090;11.498;2023-03-21T09:06:58;3.40;;;3.10;;
8353;SDS011;4656;48.090;11.498;2023-03-21T09:09:03;6.53;;;3.60;;
8353;SDS011;4656;48.090;11.498;2023-03-21T09:11:06;3.75;;;3.33;;
8353;SDS011;4656;48.090;11.498;2023-03-21T09:13:10;5.17;;;3.10;;
8353;SDS011;4656;48.090;11.498;2023-03-21T09:15:12;6.72;;;4.53;;
8353;SDS011;4656;48.090;11.498;2023-03-21T09:17:14;5.55;;;4.05;;
8353;SDS011;4656;48.090;11.498;2023-03-21T09:19:19;4.45;;;3.75;;
8353;SDS011;4656;48.090;11.498;2023-03-21T09:21:21;3.17;;;2.78;;
8353;SDS011;4656;48.090;11.498;2023-03-21T09:23:24;4.65;;;2.70;;
8353;SDS011;4656;48.090;11.498;2023-03-21T09:25:26;3.08;;;2.47;;
8353;SDS011;4656;48.090;11.498;2023-03-21T09:27:30;4.45;;;3.90;;
8353;SDS011;4656;48.090;11.498;2023-03-21T09:29:34;4.05;;;3.40;;
8353;SDS011;4656;48.090;11.498;2023-03-21T09:31:36;4.18;;;3.22;;
8353;SDS011;4656;48.090;11.498;2023-03-21T09:33:38;2.95;;;2.65;;
8353;SDS011;4656;48.090;11.498;2023-03-21T09:35:41;3.95;;;2.67;;
8353;SDS011;4656;48.090;11.498;2023-03-21T09:37:43;2.78;;;2.30;;
8353;SDS011;4656;48.090;11.498;2023-03-21T09:39:46;2.92;;;2.00;;
8353;SDS011;4656;48.090;11.498;2023-03-21T09:44:17;2.65;;;2.30;;
8353;SDS011;4656;48.090;11.498;2023-03-21T09:46:26;2.30;;;2.10;;
8353;SDS011;4656;48.090;11.498;2023-03-21T09:48:33;3.10;;;2.20;;
8353;SDS011;4656;48.090;11.498;2023-03-21T09:50:36;2.42;;;2.13;;
8353;SDS011;4656;48.090;11.498;2023-03-21T09:52:41;2.97;;;2.13;;
8353;SDS011;4656;48.090;11.498;2023-03-21T09:54:44;3.88;;;2.50;;
8353;SDS011;4656;48.090;11.498;2023-03-21T09:56:47;2.73;;;2.27;;
8353;SDS011;4656;48.090;11.498;2023-03-21T09:58:51;3.20;;;2.28;;
8353;SDS011;4656;48.090;11.498;2023-03-21T10:00:57;2.58;;;2.10;;
8353;SDS011;4656;48.090;11.498;2023-03-21T10:03:03;2.80;;;2.17;;
8353;SDS011;4656;48.090;11.498;2023-03-21T10:05:10;2.50;;;2.30;;
8353;SDS011;4656;48.090;11.498;2023-03-21T10:07:14;2.87;;;2.23;;
8353;SDS011;4656;48.090;11.498;2023-03-21T10:09:19;3.10;;;2.00;;
8353;SDS011;4656;48.090;11.498;2023-03-21T10:11:24;2.60;;;2.20;;
8353;SDS011;4656;48.090;11.498;2023-03-21T10:13:27;2.67;;;2.15;;
8353;SDS011;4656;48.090;11.498;2023-03-21T10:15:30;3.67;;;2.33;;
8353;SDS011;4656;48.090;11.498;2023-03-21T10:17:33;4.15;;;2.00;;
8353;SDS011;4656;48.090;11.498;2023-03-21T10:19:41;3.25;;;2.00;;
8353;SDS011;4656;48.090;11.498;2023-03-21T10:21:46;3.40;;;1.92;;
8353;SDS011;4656;48.090;11.498;2023-03-21T10:23:49;2.17;;;1.98;;
8353;SDS011;4656;48.090;11.498;2023-03-21T10:25:52;2.00;;;1.80;;
8353;SDS011;4656;48.090;11.498;2023-03-21T10:27:55;2.60;;;2.03;;
8353;SDS011;4656;48.090;11.498;2023-03-21T10:29:57;2.92;;;1.90;;
8353;SDS011;4656;48.090;11.498;2023-03-21T10:32:00;2.00;;;1.80;;
8353;SDS011;4656;48.090;11.498;2023-03-21T10:34:04;3.22;;;2.05;;
8353;SDS011;4656;48.090;11.498;2023-03-21T10:36:10;2.20;;;2.00;;
8353;SDS011;4656;48.090;11.498;2023-03-21T10:38:14;2.88;;;2.13;;
8353;SDS011;4656;48.090;11.498;2023-03-21T10:40:17;2.90;;;2.20;;
8353;SDS011;4656;48.090;11.498;2023-03-21T10:42:19;2.70;;;2.10;;
8353;SDS011;4656;48.090;11.498;2023-03-21T10:44:27;2.20;;;1.97;;
8353;SDS011;4656;48.090;11.498;2023-03-21T10:46:30;2.58;;;2.10;;
8353;SDS011;4656;48.090;11.498;2023-03-21T10:48:34;3.15;;;1.98;;
8353;SDS011;4656;48.090;11.498;2023-03-21T10:50:36;2.27;;;1.90;;
8353;SDS011;4656;48.090;11.498;2023-03-21T10:52:43;3.08;;;1.85;;
8353;SDS011;4656;48.090;11.498;2023-03-21T10:54:46;3.75;;;1.80;;
8353;SDS011;4656;48.090;11.498;2023-03-21T10:56:51;2.22;;;1.88;;
8353;SDS011;4656;48.090;11.498;2023-03-21T10:58:55;2.70;;;2.30;;
8353;SDS011;4656;48.090;11.498;2023-03-21T11:01:00;2.15;;;1.95;;
8353;SDS011;4656;48.090;11.498;2023-03-21T11:03:02;2.30;;;1.90;;
8353;SDS011;4656;48.090;11.498;2023-03-21T11:05:07;2.10;;;1.90;;
8353;SDS011;4656;48.090;11.498;2023-03-21T11:07:10;2.28;;;2.08;;
8353;SDS011;4656;48.090;11.498;2023-03-21T11:09:16;2.45;;;2.08;;
8353;SDS011;4656;48.090;11.498;2023-03-21T11:11:19;2.40;;;1.90;;
8353;SDS011;4656;48.090;11.498;2023-03-21T11:13:23;2.15;;;1.95;;
8353;SDS011;4656;48.090;11.498;2023-03-21T11:15:27;2.20;;;1.90;;
8353;SDS011;4656;48.090;11.498;2023-03-21T11:17:30;2.20;;;2.00;;
8353;SDS011;4656;48.090;11.498;2023-03-21T11:19:33;3.15;;;2.10;;
8353;SDS011;4656;48.090;11.498;2023-03-21T11:21:36;2.17;;;1.98;;
8353;SDS011;4656;48.090;11.498;2023-03-21T11:23:39;2.20;;;1.90;;
8353;SDS011;4656;48.090;11.498;2023-03-21T11:25:45;2.15;;;2.00;;
8353;SDS011;4656;48.090;11.498;2023-03-21T11:27:48;2.23;;;2.03;;
8353;SDS011;4656;48.090;11.498;2023-03-21T11:29:51;2.08;;;1.98;;
8353;SDS011;4656;48.090;11.498;2023-03-21T11:31:56;2.30;;;2.08;;
8353;SDS011;4656;48.090;11.498;2023-03-21T11:34:01;2.35;;;2.15;;
8353;SDS011;4656;48.090;11.498;2023-03-21T11:36:07;2.30;;;2.10;;
8353;SDS011;4656;48.090;11.498;2023-03-21T11:38:26;2.60;;;2.00;;
8353;SDS011;4656;48.090;11.498;2023-03-21T11:40:28;2.80;;;1.83;;
8353;SDS011;4656;48.090;11.498;2023-03-21T11:42:38;2.08;;;1.98;;
8353;SDS011;4656;48.090;11.498;2023-03-21T11:44:42;1.70;;;1.60;;
8353;SDS011;4656;48.090;11.498;2023-03-21T11:46:44;2.17;;;1.70;;
8353;SDS011;4656;48.090;11.498;2023-03-21T11:48:47;1.80;;;1.70;;
8353;SDS011;4656;48.090;11.498;2023-03-21T11:50:49;1.60;;;1.50;;
8353;SDS011;4656;48.090;11.498;2023-03-21T11:55:20;2.23;;;1.80;;
8353;SDS011;4656;48.090;11.498;2023-03-21T11:57:25;2.70;;;1.70;;
8353;SDS011;4656;48.090;11.498;2023-03-21T11:59:34;1.73;;;1.60;;
8353;SDS011;4656;48.090;11.498;2023-03-21T12:01:41;1.83;;;1.70;;
8353;SDS011;4656;48.090;11.498;2023-03-21T12:03:46;2.80;;;2.10;;
8353;SDS011;4656;48.090;11.498;2023-03-21T12:05:52;2.07;;;1.73;;
8353;SDS011;4656;48.090;11.498;2023-03-21T12:07:56;1.75;;;1.65;;
8353;SDS011;4656;48.090;11.498;2023-03-21T12:10:08;1.50;;;1.40;;
8353;SDS011;4656;48.090;11.498;2023-03-21T12:12:15;1.65;;;1.45;;
8353;SDS011;4656;48.090;11.498;2023-03-21T12:14:22;1.70;;;1.60;;
8353;SDS011;4656;48.090;11.498;2023-03-21T12:16:30;2.22;;;1.60;;
8353;SDS011;4656;48.090;11.498;2023-03-21T12:18:47;3.58;;;1.50;;
8353;SDS011;4656;48.090;11.498;2023-03-21T12:20:53;2.78;;;1.58;;
8353;SDS011;4656;48.090;11.498;2023-03-21T12:23:07;1.65;;;1.52;;
8353;SDS011;4656;48.090;11.498;2023-03-21T12:25:14;2.10;;;1.60;;
8353;SDS011;4656;48.090;11.498;2023-03-21T12:27:19;1.50;;;1.40;;
8353;SDS011;4656;48.090;11.498;2023-03-21T12:29:34;1.50;;;1.40;;
8353;SDS011;4656;48.090;11.498;2023-03-21T12:31:42;1.50;;;1.40;;
8353;SDS011;4656;48.090;11.498;2023-03-21T12:33:49;1.63;;;1.15;;
8353;SDS011;4656;48.090;11.498;2023-03-21T12:36:04;2.60;;;1.40;;
8353;SDS011;4656;48.090;11.498;2023-03-21T12:38:14;1.80;;;1.25;;
8353;SDS011;4656;48.090;11.498;2023-03-21T12:40:20;1.30;;;1.20;;
8353;SDS011;4656;48.090;11.498;2023-03-21T12:42:35;1.30;;;1.20;;
8353;SDS011;4656;48.090;11.498;2023-03-21T12:44:42;2.25;;;1.33;;
8353;SDS011;4656;48.090;11.498;2023-03-21T12:46:49;1.50;;;1.30;;
8353;SDS011;4656;48.090;11.498;2023-03-21T12:48:52;1.40;;;1.30;;